Time;durP1;ratioP1;P1;durP2;ratioP2;P2;SDS_P1;SDS_P2;PMS_P1;PMS_P2;Temp;Humidity;BMP_temperature;BMP_pressure;BME280_temperature;BME280_humidity;BME280_pressure;Samples;Min_cycle;Max_cycle;Signal;HPM_P1;HPM_P2
2021/07/06 00:03:22;;;;;;;2.60;1.93;;;;;;;19.02;68.30;97526.06;8411181;28;20207;-74
2021/07/06 00:07:26;;;;;;;6.53;2.33;;;;;;;19.14;67.71;97519.78;8413596;28;20528;-74
2021/07/06 00:11:30;;;;;;;3.83;1.97;;;;;;;18.67;69.17;97525.47;8414075;28;20206;-74
2021/07/06 00:15:34;;;;;;;4.20;2.00;;;;;;;18.77;69.30;97520.28;8413212;28;20302;-74
2021/07/06 00:19:37;;;;;;;4.90;2.00;;;;;;;18.95;68.00;97516.13;8413374;28;20274;-72
2021/07/06 00:23:40;;;;;;;8.23;2.80;;;;;;;18.84;68.62;97520.63;8413181;28;20203;-72
2021/07/06 00:27:45;;;;;;;3.80;2.10;;;;;;;18.51;70.11;97519.88;8412296;28;20423;-71
2021/07/06 00:31:48;;;;;;;3.70;2.23;;;;;;;18.40;70.01;97510.28;8413048;28;20320;-72
2021/07/06 00:35:51;;;;;;;4.20;1.83;;;;;;;18.64;69.36;97511.78;8412607;28;20561;-73
2021/07/06 00:39:54;;;;;;;4.40;2.00;;;;;;;18.67;69.34;97519.41;8396931;28;20195;-74
2021/07/06 00:43:58;;;;;;;8.27;2.10;;;;;;;18.65;69.10;97516.06;8378979;28;20215;-73
2021/07/06 00:48:01;;;;;;;5.00;2.10;;;;;;;18.61;69.13;97512.88;8410492;28;20230;-74
2021/07/06 00:52:05;;;;;;;6.67;2.23;;;;;;;18.74;68.31;97507.44;8412249;28;20294;-73
2021/07/06 00:56:08;;;;;;;6.03;2.03;;;;;;;18.82;68.14;97501.56;8412047;28;20206;-73
2021/07/06 01:00:14;;;;;;;4.47;2.17;;;;;;;18.64;68.70;97506.53;8411843;28;20329;-73
2021/07/06 01:04:17;;;;;;;8.10;2.03;;;;;;;18.72;68.55;97509.34;8411957;28;20358;-73
2021/07/06 01:08:20;;;;;;;5.27;2.00;;;;;;;18.30;69.72;97509.38;8411855;28;20238;-73
2021/07/06 01:12:22;;;;;;;5.03;2.20;;;;;;;18.64;68.86;97501.28;8411736;28;20199;-73
2021/07/06 01:16:27;;;;;;;8.37;2.50;;;;;;;18.10;70.76;97500.53;8417484;28;20207;-73
2021/07/06 01:20:30;;;;;;;4.43;2.00;;;;;;;18.15;70.87;97504.44;8417466;28;20230;-73
2021/07/06 01:24:36;;;;;;;4.60;1.70;;;;;;;18.35;69.75;97504.56;8417470;28;20512;-73
2021/07/06 01:28:41;;;;;;;4.17;2.03;;;;;;;18.27;69.91;97504.38;8417219;28;20243;-73
2021/07/06 01:32:46;;;;;;;4.97;1.90;;;;;;;18.40;69.76;97493.72;8417347;28;20199;-73
2021/07/06 01:36:49;;;;;;;5.07;2.00;;;;;;;18.41;69.38;97490.97;8417008;28;20203;-73
2021/07/06 01:40:53;;;;;;;8.10;2.17;;;;;;;18.40;68.96;97484.06;8416960;28;20443;-73
2021/07/06 01:45:07;;;;;;;3.53;1.80;;;;;;;18.46;68.82;97475.66;8416629;28;20211;-73
2021/07/06 01:49:12;;;;;;;5.00;2.00;;;;;;;18.44;68.45;97482.81;8416678;28;20226;-73
2021/07/06 01:53:16;;;;;;;3.47;2.20;;;;;;;18.39;68.60;97471.06;8416936;28;20199;-73
2021/07/06 01:57:24;;;;;;;3.53;1.87;;;;;;;18.32;68.59;97476.00;8416587;28;20325;-73
2021/07/06 02:01:27;;;;;;;6.37;2.17;;;;;;;18.29;68.63;97466.59;8416507;28;20365;-73
2021/07/06 02:05:32;;;;;;;5.30;2.17;;;;;;;18.31;68.88;97464.69;8416121;28;20233;-72
2021/07/06 02:09:35;;;;;;;5.63;2.00;;;;;;;18.29;68.89;97471.84;8416555;28;20222;-71
2021/07/06 02:13:39;;;;;;;6.70;2.37;;;;;;;18.14;68.99;97467.88;8416317;28;20385;-71
2021/07/06 02:17:43;;;;;;;5.50;1.90;;;;;;;18.13;68.71;97455.75;8415875;28;20203;-71
2021/07/06 02:21:46;;;;;;;5.30;2.27;;;;;;;18.08;69.14;97450.88;8415866;28;20211;-71
2021/07/06 02:25:50;;;;;;;7.57;2.00;;;;;;;18.08;69.27;97443.00;8414757;28;20207;-72
2021/07/06 02:29:54;;;;;;;6.87;2.30;;;;;;;18.02;69.32;97446.16;8415429;28;20243;-71
2021/07/06 02:33:57;;;;;;;6.47;3.00;;;;;;;18.11;68.86;97432.28;8416081;28;20294;-71
2021/07/06 02:38:01;;;;;;;6.03;2.50;;;;;;;18.09;68.62;97431.59;8415135;28;20274;-72
2021/07/06 02:42:04;;;;;;;5.90;2.20;;;;;;;18.03;68.97;97436.50;8415219;28;20284;-72
2021/07/06 02:46:09;;;;;;;6.37;2.40;;;;;;;18.08;68.74;97435.16;8414891;28;20226;-72
2021/07/06 02:50:13;;;;;;;4.80;2.50;;;;;;;17.90;69.71;97431.47;8414934;28;20298;-72
2021/07/06 02:54:16;;;;;;;6.83;2.43;;;;;;;17.91;68.98;97439.16;8414403;28;20238;-72
2021/07/06 02:58:19;;;;;;;7.77;2.93;;;;;;;18.02;68.45;97427.00;8414445;28;20219;-72
2021/07/06 03:02:23;;;;;;;5.03;2.40;;;;;;;17.98;68.63;97421.19;8414594;28;20199;-72
2021/07/06 03:06:28;;;;;;;7.57;2.50;;;;;;;18.07;68.38;97416.97;8414282;28;20237;-72
2021/07/06 03:10:34;;;;;;;9.70;2.33;;;;;;;18.04;68.20;97425.06;8414136;28;20226;-72
2021/07/06 03:14:37;;;;;;;4.03;2.30;;;;;;;18.12;67.85;97426.06;8414052;28;20218;-72
2021/07/06 03:18:41;;;;;;;4.67;2.40;;;;;;;18.19;67.71;97429.03;8413736;28;20226;-72
2021/07/06 03:22:45;;;;;;;11.53;2.10;;;;;;;18.06;68.11;97415.28;8413909;28;20454;-72
2021/07/06 03:26:48;;;;;;;5.10;2.13;;;;;;;18.08;68.09;97416.00;8413776;28;20513;-72
2021/07/06 03:30:51;;;;;;;5.33;2.13;;;;;;;18.21;67.81;97419.25;8413333;28;20199;-72
2021/07/06 03:34:55;;;;;;;3.60;2.30;;;;;;;18.17;67.80;97416.03;8413321;28;20199;-72
2021/07/06 03:38:57;;;;;;;5.60;2.93;;;;;;;17.86;68.79;97424.78;8413011;28;20230;-72
2021/07/06 03:43:00;;;;;;;3.13;2.53;;;;;;;18.16;68.06;97427.50;8413679;28;20283;-72
2021/07/06 03:47:04;;;;;;;6.43;2.43;;;;;;;18.17;68.10;97417.84;8412548;28;20451;-72
2021/07/06 03:51:09;;;;;;;6.33;2.63;;;;;;;18.21;67.77;97419.25;8412808;28;20211;-72
2021/07/06 03:55:12;;;;;;;6.33;3.10;;;;;;;17.82;69.22;97416.34;8412577;28;20199;-72
2021/07/06 03:59:15;;;;;;;5.17;2.60;;;;;;;18.24;67.85;97418.13;8412868;28;20209;-72
2021/07/06 04:03:18;;;;;;;8.73;2.70;;;;;;;18.42;67.33;97415.78;8413059;28;20199;-72
2021/07/06 04:07:22;;;;;;;5.43;2.60;;;;;;;18.43;67.18;97415.66;8412440;28;20231;-72
2021/07/06 04:11:25;;;;;;;5.47;2.40;;;;;;;18.13;68.72;97421.69;8412857;28;20342;-72
2021/07/06 04:15:27;;;;;;;8.13;2.67;;;;;;;17.81;70.17;97424.34;8412601;28;20199;-72
2021/07/06 04:19:30;;;;;;;6.73;3.00;;;;;;;17.97;69.33;97412.50;8412683;28;20490;-72
2021/07/06 04:23:35;;;;;;;6.70;2.60;;;;;;;18.16;68.70;97406.53;8412609;28;20229;-72
2021/07/06 04:27:37;;;;;;;4.93;2.20;;;;;;;18.33;67.96;97409.50;8411916;28;20238;-72
2021/07/06 04:31:40;;;;;;;9.73;2.90;;;;;;;18.36;67.79;97410.09;8412390;28;20211;-72
2021/07/06 04:35:43;;;;;;;5.33;2.40;;;;;;;18.23;68.03;97421.75;8412639;28;20270;-72
2021/07/06 04:39:47;;;;;;;5.30;2.37;;;;;;;17.75;69.74;97410.78;8412444;28;20373;-72
2021/07/06 04:43:50;;;;;;;6.53;2.90;;;;;;;18.05;68.81;97406.63;8412413;28;20210;-72
2021/07/06 04:47:53;;;;;;;7.13;2.60;;;;;;;18.16;68.51;97411.78;8413675;28;20226;-72
2021/07/06 04:51:56;;;;;;;6.37;2.43;;;;;;;18.34;67.96;97403.31;8419939;28;20191;-72
2021/07/06 04:56:01;;;;;;;7.13;2.70;;;;;;;18.26;68.54;97400.50;8420399;28;20513;-72
2021/07/06 05:00:04;;;;;;;6.00;2.70;;;;;;;18.44;67.99;97398.13;8420077;28;20199;-72
2021/07/06 05:04:07;;;;;;;4.17;2.77;;;;;;;18.33;69.01;97391.16;8419632;28;20207;-72
2021/07/06 05:08:10;;;;;;;5.27;2.57;;;;;;;18.34;69.00;97391.03;8418944;28;20506;-72
2021/07/06 05:12:14;;;;;;;7.93;2.50;;;;;;;18.61;67.50;97389.63;8418846;28;20199;-72
2021/07/06 05:16:17;;;;;;;7.00;2.43;;;;;;;18.67;67.69;97396.13;8418788;28;20203;-72
2021/07/06 05:20:20;;;;;;;6.77;2.40;;;;;;;18.78;67.39;97393.41;8418554;28;20215;-72
2021/07/06 05:24:23;;;;;;;6.27;2.47;;;;;;;19.05;67.01;97402.50;8418679;28;20218;-72
2021/07/06 05:28:28;;;;;;;4.47;2.70;;;;;;;19.17;66.86;97396.16;8418837;28;20263;-72
2021/07/06 05:32:31;;;;;;;3.53;2.50;;;;;;;19.06;66.71;97404.16;8419396;28;20199;-72
2021/07/06 05:36:34;;;;;;;5.27;2.67;;;;;;;19.28;67.17;97405.69;8419270;28;20497;-72
2021/07/06 05:40:39;;;;;;;4.77;2.53;;;;;;;18.99;67.21;97400.41;8419210;28;20210;-72
2021/07/06 05:44:45;;;;;;;2.73;2.07;;;;;;;19.40;65.70;97395.91;8414537;28;20207;-72
2021/07/06 05:48:48;;;;;;;6.17;2.27;;;;;;;19.44;65.79;97392.03;8385388;28;20250;-72
2021/07/06 05:52:51;;;;;;;8.23;2.20;;;;;;;19.39;64.85;97386.38;8385258;28;20203;-72
2021/07/06 05:56:54;;;;;;;4.27;2.07;;;;;;;19.56;64.79;97379.63;8385223;28;20204;-72
2021/07/06 06:00:58;;;;;;;6.83;2.17;;;;;;;19.71;63.94;97380.84;8385027;28;20451;-72
2021/07/06 06:05:01;;;;;;;5.90;2.10;;;;;;;19.78;63.91;97370.63;8384861;28;20204;-72
2021/07/06 06:09:04;;;;;;;4.13;1.80;;;;;;;20.13;62.81;97363.94;8384686;28;20231;-72
2021/07/06 06:13:07;;;;;;;8.13;1.97;;;;;;;20.16;62.65;97361.81;8385100;28;20200;-72
2021/07/06 06:17:11;;;;;;;6.13;2.03;;;;;;;20.35;62.57;97355.69;8385019;28;20212;-72
2021/07/06 06:21:14;;;;;;;9.77;2.07;;;;;;;20.56;61.63;97344.09;8383892;28;20227;-72
2021/07/06 06:25:17;;;;;;;3.80;1.70;;;;;;;20.42;61.26;97348.06;8383046;28;20206;-72
2021/07/06 06:29:20;;;;;;;3.67;1.70;;;;;;;20.87;60.34;97348.13;8383201;28;20240;-72
2021/07/06 06:33:24;;;;;;;3.50;1.67;;;;;;;20.96;59.98;97356.09;8383775;28;20200;-72
2021/07/06 06:37:27;;;;;;;4.27;1.80;;;;;;;21.27;59.44;97343.44;8383359;28;20200;-72
2021/07/06 06:41:30;;;;;;;6.03;1.90;;;;;;;21.16;59.93;97349.75;8391716;28;20200;-72
2021/07/06 06:45:32;;;;;;;2.77;1.60;;;;;;;21.45;59.63;97325.81;8416251;28;20211;-72
2021/07/06 06:49:36;;;;;;;4.70;2.00;;;;;;;22.09;58.63;97338.81;8416172;28;20238;-72
2021/07/06 06:53:39;;;;;;;4.50;1.87;;;;;;;21.85;58.00;97340.28;8416196;28;20210;-72
2021/07/06 06:57:42;;;;;;;2.53;1.70;;;;;;;21.62;59.80;97339.13;8415918;28;20202;-72
2021/07/06 07:01:46;;;;;;;3.03;1.80;;;;;;;21.99;58.98;97346.81;8415989;28;20242;-72
2021/07/06 07:05:52;;;;;;;3.97;1.47;;;;;;;22.00;59.15;97348.47;8415597;28;20244;-72
2021/07/06 07:09:55;;;;;;;5.43;1.87;;;;;;;21.98;57.97;97346.97;8415487;28;20237;-72
2021/07/06 07:13:58;;;;;;;7.00;1.77;;;;;;;22.03;58.51;97352.63;8400326;28;20384;-72
2021/07/06 07:18:01;;;;;;;5.27;1.50;;;;;;;22.12;57.46;97346.38;8398176;28;20203;-72
2021/07/06 07:22:06;;;;;;;3.00;1.50;;;;;;;22.28;58.32;97334.34;8397807;28;20272;-72
2021/07/06 07:26:09;;;;;;;7.33;2.60;;;;;;;22.55;57.00;97336.75;8398281;28;20197;-72
2021/07/06 07:30:14;;;;;;;2.83;1.40;;;;;;;22.89;56.44;97341.16;8387498;28;20626;-73
2021/07/06 07:34:16;;;;;;;4.83;1.60;;;;;;;;;;8401856;28;20199;-73
2021/07/06 07:38:20;;;;;;;7.13;1.73;;;;;;;23.33;54.89;97342.75;8414566;28;20201;-72
2021/07/06 07:42:23;;;;;;;4.97;1.80;;;;;;;23.34;55.42;97337.31;8405292;28;20491;-72
2021/07/06 07:46:26;;;;;;;4.13;1.40;;;;;;;23.66;54.46;97333.00;8393786;28;20240;-72
2021/07/06 07:50:29;;;;;;;6.47;1.53;;;;;;;24.12;53.71;97337.75;8397468;28;20661;-73
2021/07/06 07:54:34;;;;;;;2.40;1.20;;;;;;;23.95;53.19;97351.03;8389872;28;20493;-74
2021/07/06 07:58:39;;;;;;;3.67;1.43;;;;;;;24.32;51.66;97333.75;8398266;28;20211;-73
2021/07/06 08:02:42;;;;;;;4.47;1.17;;;;;;;24.69;51.18;97342.88;8413723;28;20486;-73
2021/07/06 08:06:45;;;;;;;7.77;1.50;;;;;;;24.86;50.42;97335.69;8414028;28;20556;-71
2021/07/06 08:10:52;;;;;;;2.03;1.07;;;;;;;24.84;50.65;97331.56;8413475;28;20227;-72
2021/07/06 08:14:55;;;;;;;4.13;1.20;;;;;;;24.78;50.31;97323.31;8413618;28;20199;-72
2021/07/06 08:18:58;;;;;;;2.67;1.10;;;;;;;25.23;49.67;97320.94;8413641;28;20227;-73
2021/07/06 08:23:01;;;;;;;2.77;1.20;;;;;;;25.14;49.54;97317.47;8414160;28;20209;-72
2021/07/06 08:27:05;;;;;;;2.10;1.13;;;;;;;25.66;48.02;97301.88;8420108;28;20217;-72
2021/07/06 08:31:08;;;;;;;3.17;1.30;;;;;;;25.90;47.88;97301.63;8420217;28;20223;-72
2021/07/06 08:35:11;;;;;;;5.20;1.43;;;;;;;25.97;47.18;97301.78;8419953;28;20222;-73
2021/07/06 08:39:14;;;;;;;2.90;1.10;;;;;;;26.41;47.47;97313.41;8420037;28;20392;-73
2021/07/06 08:43:19;;;;;;;4.50;1.37;;;;;;;26.63;46.34;97301.03;8419880;28;20200;-72
2021/07/06 08:47:23;;;;;;;3.87;1.30;;;;;;;26.66;45.82;97301.50;8393232;28;20209;-72
2021/07/06 08:51:35;;;;;;;5.50;1.10;;;;;;;26.82;46.20;97300.44;8386335;28;20531;-73
2021/07/06 08:55:38;;;;;;;2.80;1.10;;;;;;;26.82;45.27;97299.63;8386591;28;20492;-73
2021/07/06 08:59:42;;;;;;;2.07;0.70;;;;;;;26.99;45.12;97297.56;8390655;28;20208;-71
2021/07/06 09:03:52;;;;;;;2.20;0.90;;;;;;;27.34;44.50;97289.72;8386645;28;20328;-72
2021/07/06 09:07:55;;;;;;;2.03;1.00;;;;;;;27.26;43.61;97282.72;8386435;28;20537;-71
2021/07/06 09:12:00;;;;;;;5.70;1.20;;;;;;;27.61;43.83;97291.63;8385931;28;20297;-72
2021/07/06 09:16:04;;;;;;;5.83;1.17;;;;;;;27.82;43.52;97305.91;8385660;28;20381;-73
2021/07/06 09:20:11;;;;;;;1.47;1.00;;;;;;;27.94;42.69;97300.88;8386280;28;20230;-73
2021/07/06 09:24:24;;;;;;;6.13;1.10;;;;;;;27.67;43.56;97300.66;8386474;28;20431;-71
2021/07/06 09:28:27;;;;;;;2.83;1.00;;;;;;;27.46;41.82;97307.66;8386064;28;20236;-72
2021/07/06 09:32:31;;;;;;;4.07;1.10;;;;;;;27.22;42.67;97300.84;8385719;28;20229;-71
2021/07/06 09:36:40;;;;;;;2.87;0.97;;;;;;;26.99;43.10;97302.88;8384571;28;20204;-72
2021/07/06 09:40:43;;;;;;;3.13;0.83;;;;;;;26.66;43.78;97292.72;8384877;28;20501;-71
2021/07/06 09:44:46;;;;;;;4.20;1.20;;;;;;;26.61;44.45;97298.56;8384969;28;20456;-72
2021/07/06 09:48:51;;;;;;;4.10;0.80;;;;;;;26.86;43.54;97300.88;8385033;28;20207;-71
2021/07/06 09:52:54;;;;;;;3.90;1.20;;;;;;;27.32;44.82;97300.56;8384499;28;20228;-72
2021/07/06 09:57:05;;;;;;;1.47;1.00;;;;;;;26.72;43.64;97297.25;8384528;28;20204;-72
2021/07/06 10:01:08;;;;;;;4.47;0.90;;;;;;;26.78;44.86;97316.94;8384829;28;20206;-71
2021/07/06 10:05:17;;;;;;;1.50;0.83;;;;;;;26.75;44.35;97341.22;8384288;28;20203;-70
2021/07/06 10:09:20;;;;;;;3.27;0.90;;;;;;;27.09;43.60;97348.53;8384037;28;20268;-70
2021/07/06 10:13:23;;;;;;;2.07;0.90;;;;;;;27.80;43.06;97350.50;8384231;28;20202;-70
2021/07/06 10:17:25;;;;;;;1.57;0.90;;;;;;;28.15;42.16;97342.56;8383740;28;20213;-68
2021/07/06 10:21:30;;;;;;;2.27;0.80;;;;;;;28.11;42.12;97347.47;8383611;28;20226;-70
2021/07/06 10:25:34;;;;;;;2.27;0.90;;;;;;;27.54;43.81;97348.41;8384022;28;20201;-73
2021/07/06 10:29:38;;;;;;;5.70;1.10;;;;;;;27.44;45.01;97351.41;8383608;28;20237;-69
2021/07/06 10:33:42;;;;;;;3.07;1.10;;;;;;;27.43;44.11;97345.25;8384037;28;20518;-71
2021/07/06 10:37:46;;;;;;;1.63;0.80;;;;;;;27.84;44.40;97341.91;8384111;28;20208;-71
2021/07/06 10:41:55;;;;;;;2.10;1.20;;;;;;;28.06;42.76;97352.53;8383216;28;20291;-71
2021/07/06 10:45:58;;;;;;;3.43;1.20;;;;;;;27.91;43.45;97347.31;8396807;28;20530;-72
2021/07/06 10:50:24;;;;;;;2.10;0.83;;;;;;;28.01;43.09;97353.13;8415508;28;20238;-72
2021/07/06 10:54:31;;;;;;;1.77;0.87;;;;;;;27.58;44.14;97360.31;8415279;28;20199;-73
2021/07/06 10:58:54;;;;;;;1.40;1.00;;;;;;;27.26;44.80;97365.09;8415146;28;20200;-72
2021/07/06 11:03:13;;;;;;;1.27;0.90;;;;;;;27.16;44.32;97362.72;8415076;28;20430;-72
2021/07/06 11:07:17;;;;;;;2.50;1.00;;;;;;;27.23;44.55;97370.78;8414699;28;20220;-72
2021/07/06 11:11:36;;;;;;;5.37;1.00;;;;;;;28.20;42.63;97370.25;8414682;28;20229;-70
2021/07/06 11:15:39;;;;;;;0.80;0.77;;;;;;;28.75;40.57;97359.72;8414535;28;20208;-70
2021/07/06 11:19:44;;;;;;;1.57;0.90;;;;;;;27.94;42.62;97386.03;8414431;28;20203;-71
2021/07/06 11:23:46;;;;;;;5.77;1.33;;;;;;;26.68;47.57;97429.59;8414394;28;20211;-74
2021/07/06 11:27:58;;;;;;;7.13;1.40;;;;;;;26.25;48.39;97420.56;8411473;28;20551;-72
2021/07/06 11:32:15;;;;;;;5.80;1.20;;;;;;;25.90;50.25;97458.13;8411655;28;20550;-72
2021/07/06 11:36:19;;;;;;;4.40;1.67;;;;;;;25.53;51.95;97454.41;8414410;28;20205;-69
2021/07/06 11:40:24;;;;;;;21.50;1.80;;;;;;;26.67;49.95;97417.34;8414152;28;20454;-71
2021/07/06 11:44:28;;;;;;;4.10;1.13;;;;;;;27.10;48.57;97416.63;8414090;28;20207;-71
2021/07/06 11:48:34;;;;;;;2.83;1.00;;;;;;;27.58;47.18;97403.69;8414277;28;20209;-72
2021/07/06 11:52:41;;;;;;;4.50;1.20;;;;;;;27.48;45.99;97404.00;8414102;28;20233;-72
2021/07/06 11:56:45;;;;;;;2.33;0.90;;;;;;;27.69;44.90;97407.69;8414084;28;20216;-71
2021/07/06 12:00:49;;;;;;;2.70;0.80;;;;;;;27.86;44.25;97414.38;8414033;28;20242;-72
2021/07/06 12:04:52;;;;;;;1.43;0.60;;;;;;;28.34;44.12;97419.06;8413850;28;20483;-72
2021/07/06 12:08:55;;;;;;;4.53;1.00;;;;;;;28.08;42.18;97433.84;8413819;28;20201;-73
2021/07/06 12:13:04;;;;;;;1.50;0.63;;;;;;;28.25;43.95;97434.38;8413816;28;20230;-72
2021/07/06 12:17:09;;;;;;;1.23;0.60;;;;;;;28.53;43.85;97430.09;8414479;28;20429;-72
2021/07/06 12:21:12;;;;;;;5.13;0.70;;;;;;;27.92;43.74;97431.44;8414625;28;20237;-71
2021/07/06 12:25:15;;;;;;;2.90;0.63;;;;;;;28.37;43.89;97428.50;8413935;28;20483;-72
2021/07/06 12:29:27;;;;;;;0.60;0.50;;;;;;;28.14;43.52;97410.97;8404246;28;20231;-72
2021/07/06 12:33:33;;;;;;;2.67;0.50;;;;;;;27.82;45.32;97417.63;8396391;28;20221;-72
2021/07/06 12:37:36;;;;;;;1.13;0.50;;;;;;;27.65;45.75;97428.50;8404839;28;20197;-71
2021/07/06 12:41:43;;;;;;;1.43;0.60;;;;;;;27.48;46.38;97422.59;8413609;28;20234;-72
2021/07/06 12:45:45;;;;;;;2.33;0.50;;;;;;;27.51;45.90;97426.72;8413176;28;20199;-72
2021/07/06 12:49:55;;;;;;;0.40;0.40;;;;;;;27.67;46.89;97449.59;8413375;28;20203;-72
2021/07/06 12:54:02;;;;;;;0.50;0.50;;;;;;;27.22;46.40;97447.03;8413344;28;20228;-71
2021/07/06 12:58:10;;;;;;;0.60;0.40;;;;;;;27.24;44.50;97446.84;8413416;28;20205;-69
2021/07/06 13:02:21;;;;;;;0.93;0.40;;;;;;;27.09;45.42;97461.00;8413517;28;20539;-68
2021/07/06 13:06:26;;;;;;;2.37;0.30;;;;;;;26.73;45.28;97471.50;8413432;28;20446;-70
2021/07/06 13:10:45;;;;;;;3.23;0.40;;;;;;;26.59;43.80;97474.97;8416567;28;20318;-68
2021/07/06 13:14:51;;;;;;;1.63;0.40;;;;;;;26.60;43.70;97481.94;8419510;28;20199;-69
2021/07/06 13:18:54;;;;;;;1.70;0.30;;;;;;;26.51;45.12;97486.50;8419675;28;20226;-69
2021/07/06 13:22:58;;;;;;;2.37;0.30;;;;;;;26.46;44.97;97471.09;8419344;28;20206;-69
2021/07/06 13:27:01;;;;;;;1.93;0.23;;;;;;;26.71;45.72;97469.06;8419394;28;20209;-69
2021/07/06 13:31:07;;;;;;;0.30;0.30;;;;;;;26.80;45.01;97474.28;8391256;28;20500;-71
2021/07/06 13:35:11;;;;;;;0.20;0.20;;;;;;;26.88;46.02;97482.16;8386275;28;20356;-69
2021/07/06 13:39:15;;;;;;;0.53;0.30;;;;;;;26.91;45.91;97479.13;8385704;28;20202;-68
2021/07/06 13:43:18;;;;;;;0.50;0.30;;;;;;;26.55;46.00;97494.94;8385940;28;20297;-71
2021/07/06 13:47:20;;;;;;;2.17;0.50;;;;;;;26.36;46.15;97488.31;8405344;28;20210;-68
2021/07/06 13:51:23;;;;;;;2.37;0.50;;;;;;;26.24;47.22;97495.88;8418399;28;20291;-69
2021/07/06 13:55:34;;;;;;;3.03;0.47;;;;;;;26.03;47.13;97494.72;8403006;28;20497;-68
2021/07/06 13:59:37;;;;;;;2.50;0.50;;;;;;;26.08;47.27;97496.81;8401184;28;20203;-69
2021/07/06 14:03:40;;;;;;;1.37;0.50;;;;;;;26.11;47.56;97499.94;8398153;28;20224;-68
2021/07/06 14:07:43;;;;;;;0.87;0.57;;;;;;;25.93;47.29;97504.72;8393629;28;20237;-67
2021/07/06 14:11:48;;;;;;;0.57;0.40;;;;;;;25.96;48.04;97511.50;8397659;28;20222;-68
2021/07/06 14:15:50;;;;;;;0.70;0.40;;;;;;;25.85;49.21;97518.00;8383391;28;20475;-68
2021/07/06 14:19:53;;;;;;;2.97;0.60;;;;;;;25.89;48.73;97536.06;8383809;28;20261;-68
2021/07/06 14:24:13;;;;;;;1.07;0.50;;;;;;;25.77;48.47;97524.19;8399219;28;20196;-68
2021/07/06 14:28:17;;;;;;;1.47;0.60;;;;;;;25.87;48.56;97521.31;8397438;28;20524;-69
2021/07/06 14:32:20;;;;;;;0.40;0.40;;;;;;;26.08;49.01;97526.00;8399439;28;20294;-71
2021/07/06 14:36:23;;;;;;;0.50;0.50;;;;;;;26.00;48.39;97521.56;8396764;28;20192;-72
2021/07/06 14:40:26;;;;;;;0.63;0.50;;;;;;;25.81;49.07;97533.44;8395016;28;20198;-72
2021/07/06 14:44:30;;;;;;;0.83;0.53;;;;;;;25.60;49.21;97547.31;8394826;28;20215;-71
2021/07/06 14:48:33;;;;;;;1.17;0.47;;;;;;;25.16;48.72;97551.28;8383242;28;20205;-71
2021/07/06 14:52:36;;;;;;;0.77;0.47;;;;;;;25.05;48.64;97559.56;8382837;28;20217;-71
2021/07/06 14:56:38;;;;;;;1.50;0.50;;;;;;;24.94;49.04;97568.72;8382625;28;20198;-71
2021/07/06 15:00:43;;;;;;;0.70;0.50;;;;;;;24.88;49.60;97579.16;8382524;28;20191;-70
2021/07/06 15:04:45;;;;;;;0.80;0.60;;;;;;;24.93;49.55;97579.47;8382406;28;20397;-71
2021/07/06 15:08:48;;;;;;;0.60;0.50;;;;;;;25.12;49.56;97573.81;8382133;28;20385;-70
2021/07/06 15:12:52;;;;;;;0.67;0.53;;;;;;;25.00;49.80;97576.97;8382049;28;20238;-70
2021/07/06 15:16:56;;;;;;;1.20;0.57;;;;;;;24.96;49.75;97568.56;8383101;28;20274;-69
2021/07/06 15:20:59;;;;;;;0.60;0.60;;;;;;;25.15;50.02;97560.22;8382749;28;20220;-69
2021/07/06 15:25:02;;;;;;;0.80;0.60;;;;;;;25.31;49.69;97547.94;8382259;28;20209;-69
2021/07/06 15:29:05;;;;;;;3.90;0.70;;;;;;;25.30;50.50;97541.84;8381553;28;20250;-69
2021/07/06 15:33:11;;;;;;;1.77;0.70;;;;;;;25.36;51.14;97550.94;8394877;28;20224;-69
2021/07/06 15:37:34;;;;;;;2.40;0.60;;;;;;;25.15;51.19;97551.44;8397848;28;20188;-69
2021/07/06 15:41:37;;;;;;;2.67;0.80;;;;;;;25.11;51.73;97563.38;8395050;28;20202;-71
2021/07/06 15:45:40;;;;;;;0.77;0.50;;;;;;;25.00;51.02;97563.72;8404984;28;20200;-71
2021/07/06 15:49:45;;;;;;;1.03;0.83;;;;;;;25.00;51.57;97567.22;8415393;28;20615;-70
2021/07/06 15:53:47;;;;;;;1.50;0.90;;;;;;;24.78;51.87;97551.03;8414809;28;20408;-73
2021/07/06 15:57:51;;;;;;;1.93;0.63;;;;;;;24.77;51.88;97551.22;8414359;28;20203;-72
2021/07/06 16:01:54;;;;;;;6.53;0.90;;;;;;;24.94;52.61;97552.00;8414384;28;20207;-73
2021/07/06 16:05:58;;;;;;;55.17;13.43;;;;;;;24.87;52.33;97561.63;8414496;28;20413;-72
2021/07/06 16:10:01;;;;;;;8.37;2.70;;;;;;;24.92;51.79;97554.84;8402490;28;20416;-73
2021/07/06 16:14:05;;;;;;;6.40;1.40;;;;;;;24.88;52.80;97557.97;8391344;28;20543;-72
2021/07/06 16:18:08;;;;;;;5.93;1.70;;;;;;;24.93;53.26;97572.34;8391031;28;20207;-73
2021/07/06 16:22:12;;;;;;;1.20;1.10;;;;;;;24.83;52.48;97570.88;8380580;28;20370;-72
2021/07/06 16:26:15;;;;;;;2.07;0.80;;;;;;;24.73;52.49;97557.81;8380682;28;20275;-72
2021/07/06 16:30:19;;;;;;;1.70;0.90;;;;;;;24.57;53.26;97545.44;8380809;28;20228;-75
2021/07/06 16:34:22;;;;;;;1.60;0.70;;;;;;;24.65;53.85;97537.47;8393643;28;20219;-74
2021/07/06 16:38:26;;;;;;;2.70;0.50;;;;;;;24.53;54.25;97539.66;8404836;28;20503;-75
2021/07/06 16:42:40;;;;;;;2.87;1.60;;;;;;;24.58;54.05;97531.22;8414015;28;20231;-74
2021/07/06 16:46:44;;;;;;;4.53;0.80;;;;;;;24.55;54.86;97528.91;8418968;28;20376;-76
2021/07/06 18:00:37;;;;;;;3.50;1.07;;;;;;;23.07;63.05;97533.00;8330917;28;20284;-73
2021/07/06 18:04:40;;;;;;;2.20;0.97;;;;;;;23.03;64.35;97541.22;8320346;28;20448;-73
2021/07/06 18:08:43;;;;;;;3.10;1.13;;;;;;;23.04;63.50;97552.63;8314983;28;20224;-73
2021/07/06 18:12:47;;;;;;;1.50;1.10;;;;;;;22.98;63.08;97567.25;8367368;28;20233;-71
2021/07/06 18:16:51;;;;;;;2.63;1.07;;;;;;;22.93;63.80;97569.53;8383831;28;20203;-74
2021/07/06 18:20:56;;;;;;;3.50;1.20;;;;;;;22.90;64.06;97579.56;8383496;28;20202;-73
2021/07/06 18:24:59;;;;;;;3.13;1.10;;;;;;;22.82;63.46;97588.28;8384402;28;20395;-73
2021/07/06 18:29:02;;;;;;;2.03;1.00;;;;;;;22.72;64.64;97608.66;8382983;28;20236;-72
2021/07/06 18:33:05;;;;;;;3.17;1.10;;;;;;;22.69;65.42;97611.59;8383266;28;20552;-74
2021/07/06 18:37:09;;;;;;;3.37;1.10;;;;;;;22.61;64.54;97607.09;8399071;28;20271;-71
2021/07/06 18:41:13;;;;;;;6.47;1.20;;;;;;;22.62;65.03;97609.56;8397129;28;20472;-74
2021/07/06 18:45:16;;;;;;;1.40;1.00;;;;;;;22.60;65.04;97619.47;8398398;28;20201;-74
2021/07/06 18:49:19;;;;;;;3.00;1.10;;;;;;;22.59;65.21;97617.78;8398791;28;20197;-74
2021/07/06 18:53:25;;;;;;;4.07;1.00;;;;;;;22.59;64.96;97630.97;8398442;28;20219;-74
2021/07/06 18:57:28;;;;;;;1.17;1.00;;;;;;;22.53;65.16;97638.69;8398750;28;20195;-74
2021/07/06 19:01:31;;;;;;;3.97;1.10;;;;;;;22.51;65.32;97630.09;8410781;28;20200;-72
2021/07/06 19:05:37;;;;;;;4.57;1.23;;;;;;;22.49;65.35;97637.34;8383456;28;20278;-71
2021/07/06 19:09:41;;;;;;;4.27;1.20;;;;;;;22.45;64.82;97644.72;8381347;28;20510;-72
2021/07/06 19:13:48;;;;;;;1.97;1.20;;;;;;;22.39;64.84;97664.63;8381417;28;20227;-71
2021/07/06 19:17:52;;;;;;;3.20;1.40;;;;;;;22.40;65.16;97682.09;8382143;28;20207;-71
2021/07/06 19:21:55;;;;;;;4.77;1.20;;;;;;;22.33;65.26;97698.66;8382104;28;20247;-72
2021/07/06 19:34:43;;;;;;;8.40;1.27;;;;;;;22.23;65.79;97723.25;8380294;28;20223;-72
2021/07/06 19:38:46;;;;;;;3.07;1.33;;;;;;;22.23;65.86;97717.16;8381564;28;20203;-71
2021/07/06 19:42:50;;;;;;;5.90;1.30;;;;;;;22.24;65.77;97732.03;8380946;28;20285;-73
2021/07/06 19:46:53;;;;;;;2.67;1.03;;;;;;;22.27;65.99;97718.53;8400044;28;20212;-72
2021/07/06 19:50:57;;;;;;;3.90;1.40;;;;;;;22.17;65.92;97725.66;8414414;28;20209;-72
2021/07/06 19:54:59;;;;;;;3.73;1.30;;;;;;;22.13;66.24;97729.56;8414016;28;20231;-71
2021/07/06 19:59:04;;;;;;;5.63;1.53;;;;;;;22.15;65.90;97733.72;8413484;28;20224;-71
2021/07/06 20:03:06;;;;;;;4.30;1.43;;;;;;;22.02;65.99;97731.41;8397115;28;20509;-71
2021/07/06 20:07:09;;;;;;;8.87;1.47;;;;;;;21.89;65.72;97730.91;8380289;28;20222;-71
2021/07/06 20:11:13;;;;;;;3.73;1.37;;;;;;;21.96;65.52;97747.00;8380252;28;20214;-73
2021/07/06 20:15:17;;;;;;;11.27;1.57;;;;;;;21.91;65.30;97760.59;8379933;28;20321;-73
2021/07/06 20:19:20;;;;;;;3.10;1.20;;;;;;;21.84;64.79;97764.81;8379826;28;20207;-73
2021/07/06 20:23:23;;;;;;;2.23;1.40;;;;;;;21.75;64.44;97761.22;8379734;28;20210;-72
2021/07/06 20:27:26;;;;;;;2.70;1.30;;;;;;;21.65;64.19;97755.16;8379673;28;20239;-72
2021/07/06 20:31:30;;;;;;;3.03;1.37;;;;;;;21.73;63.93;97775.53;8379797;28;20201;-72